x

Buoy F01 - West Penobscot Bay (44033) Wave Buoy

7:04 - Thu 30th Oct 2014 All times are EDT. -4 hours from GMT.

  • Sig Wave height 1.6ft
  • Peak Period 6s
  • Wind
    7mph, 9mph gusts
  • Sea Temp 53°f
  • Ar Temp 49°f
  • Sea Pressure 1010.2mb
  • Buoy F01 - West Penobscot Bay
  • Buoy F01 - West Penobscot Bay

More Historic Weather Station data

Upgrade to MSW Pro to gain access to the past 30 days of data for over 8000 Wavebouys and Weather Stations around the globe.

Join Pro

Comparision Forecast

View Surf forecast
   
Qui 10/30 7:04 1.6ft 6s 7 9 mph 1010.2mb 53f 49f
6:04 2ft 6s 7 9 mph 1009.7mb 54f 49f
5:04 2ft 6s 7 9 mph 1008.9mb 54f 49f
4:04 2ft 6s 11 13 mph 1008.6mb 54f 51f
3:04 2ft 6s 9 11 mph 1008.3mb 54f 51f
2:04 2ft 6s 9 11 mph 1008.3mb 54f 52f
1:04 2ft 5s 7 9 mph 1007.8mb 54f 53f
12:04 2ft 6s 7 9 mph 1007.7mb 54f 54f
Qua 10/29 11:04 1.6ft 6s 9 11 mph 1007.7mb 54f 54f
10:04 2ft 5s 7 9 mph 1008mb 54f 54f
9:04 2ft 5s 9 11 mph 1008mb 54f 55f
8:04 2ft 5s 7
mph
1007.3mb 54f 54f
7:04 2ft 6s 7
mph
1007.4mb 54f 54f
6:04 2ft 5s 13 16 mph 1007mb 54f 53f
5:04 2ft 5s 13 16 mph 1006.5mb 54f 53f
4:04 2ft 6s 9 11 mph 1006.4mb 54f 53f
3:04 2.5ft 6s 13 16 mph 1006.9mb 54f 53f
2:04 2ft 5s 11 13 mph 1007mb 54f 53f
10:04 2.5ft 5s 16 18 mph 1009.3mb 54f 54f
9:04 2.5ft 5s 13 16 mph 1009.7mb 54f 54f
8:04 2ft 5s 9 11 mph 1009.9mb 54f 55f
7:04 2.5ft 5s 9 11 mph 1009.9mb 54f 55f
6:04 2ft 5s 9 11 mph 1010.2mb 54f 55f
5:04 2ft 5s 7
mph
1010.5mb 54f 55f
4:04 2.5ft 5s 9 11 mph 1010.8mb 54f 55f
3:04 2.5ft 5s 7
mph
1011.4mb 54f 55f
2:04 2ft 5s 9
mph
1012.2mb 54f 56f
1:04 2.5ft 4s 11 16 mph 1012.6mb 54f 56f
12:04 2.5ft 4s 18 20 mph 1013.4mb 54f 55f
Ter 10/28 11:04 2.5ft 4s 13 16 mph 1014.7mb 54f 55f
10:04 2ft 4s 11 16 mph 1015.4mb 54f 55f
9:04 1.6ft 3s 11 16 mph 1015.8mb 54f 54f
8:04 1.3ft 3s 13 16 mph 1015.7mb 54f 54f
7:04 1.3ft 3s 13 16 mph 1016.1mb 54f 54f
6:04 1.3ft 3s 13 16 mph 1016.4mb 54f 53f
5:04 1ft 6s 13 16 mph 1016.5mb 54f 53f
4:04 1.3ft 6s 13 16 mph 1016.5mb 54f 52f
3:04 0.7ft  -  13 16 mph 1016.4mb 54f 51f
2:04 0.7ft  -  11 13 mph 1016.9mb 54f 51f
1:04 0.7ft  -  7 9 mph 1017.8mb 53f 51f
12:04 0.7ft  -  4 7 mph 1018.2mb 53f 51f
11:04 0.7ft  -  4
mph
1017.9mb 53f 50f
10:04 0.7ft  -  2 4 mph 1017.9mb 53f 50f
9:04 1ft 3s 4
mph
1018.1mb 53f 50f
8:04 0.7ft  -  7
mph
1017.6mb 53f 49f
7:04 0.7ft  -  7 9 mph 1017.3mb 53f 49f
6:04 0.7ft  -  11 13 mph 1016.7mb 53f 49f
5:04 0.7ft  -  9 11 mph 1015.9mb 54f 49f
4:04 0.7ft  -  9
mph
1014.8mb 54f 49f
3:04 0.7ft  -  11 13 mph 1014.8mb 54f 49f
2:04 0.7ft  -  13 16 mph 1014.4mb 54f 49f
1:04 0.7ft  -  13 16 mph 1013.7mb 54f 50f
12:04 1ft 2s 13 16 mph 1013.5mb 54f 49f
Seg 10/27 11:04 1ft 5s 13 16 mph 1013.2mb 54f 49f
10:04 0.7ft  -  13
mph
1012.9mb 54f 50f
9:04 1ft  -  11 13 mph 1012.3mb 54f 50f
8:04 1.3ft 2s 16 18 mph 1011.8mb 54f 51f
7:04 1.3ft 5s 20 25 mph 1011mb 54f 53f
6:04 1.3ft 3s 18 22 mph 1009.3mb 54f 54f
5:04 1.3ft 6s 18 22 mph 1008.1mb 54f 55f
4:04 1.6ft 2s 20 25 mph 1007.2mb 54f 55f
3:04 2ft 3s 20 25 mph 1006.4mb 54f 55f
2:04 1.6ft 3s 22 29 mph 1005.8mb 54f 55f
1:04 2ft 3s 20 25 mph 1005.9mb 54f 54f
12:04 2ft 3s 20 25 mph 1006.5mb 54f 53f
11:04 2.5ft 3s 20 29 mph 1005.8mb 54f 53f
10:04 1.6ft 2s 22 29 mph 1005.1mb 54f 51f
9:04 1.6ft 2s 18 22 mph 1005mb 54f 50f
8:04 1ft 5s 16 20 mph 1004.5mb 54f 48f
7:04 1ft 5s 11 16 mph 1003.7mb 54f 47f
6:04 1.3ft 8s 16 18 mph 1002.8mb 54f 47f
5:04 1.3ft 5s 11 16 mph 1002.6mb 54f 47f
4:04 1ft 5s 9 13 mph 1002mb 54f 47f
3:04 1ft 8s 9 11 mph 1001.1mb 54f 47f
2:04 1ft 6s 9 11 mph 1000.9mb 54f 47f
1:04 1ft 5s 11 13 mph 1000.4mb 54f 48f
12:04 1ft 5s 13 16 mph 999.8mb 54f 49f
Dom 10/26 11:04 1ft 2s 18 20 mph 999.9mb 54f 49f
10:04 1.3ft 2s 20 22 mph 999.3mb 54f 50f
9:04 1.3ft 6s 18 20 mph 999mb 54f 51f
8:04 1.6ft 5s 18 20 mph 998.3mb 55f 52f
7:04 1.3ft 5s 13 16 mph 997.7mb 55f 53f
6:04 1.6ft 5s 18 22 mph 996.7mb 55f 55f
5:04 1.6ft 5s 18 25 mph 995.5mb 55f 55f
4:04 1.6ft 5s 16 22 mph 994.3mb 55f 56f
3:04 2ft 5s 13 16 mph 993.7mb 55f 56f
2:04 2ft 5s 16 20 mph 993.1mb 55f 56f